Time;durP1;ratioP1;P1;durP2;ratioP2;P2;SDS_P1;SDS_P2;PMS_P1;PMS_P2;Temp;Humidity;BMP_temperature;BMP_pressure;BME280_temperature;BME280_humidity;BME280_pressure;Samples;Min_cycle;Max_cycle;Signal;HPM_P1;HPM_P2
2022/10/21 00:00:54;;;;;;;30.08;17.05;;;;;;;3.57;100.00;100731.50;4971229;28;20030;-81
2022/10/21 00:03:24;;;;;;;27.95;15.40;;;;;;;3.67;100.00;100741.81;4971256;28;20035;-81
2022/10/21 00:05:50;;;;;;;28.95;17.48;;;;;;;3.48;100.00;100711.50;4972105;28;20531;-81
2022/10/21 00:08:19;;;;;;;35.28;16.92;;;;;;;3.38;100.00;100704.81;4971936;28;20023;-81
2022/10/21 00:10:58;;;;;;;30.20;15.23;;;;;;;3.59;100.00;100740.34;4972276;28;20436;-82
2022/10/21 00:13:25;;;;;;;35.33;17.00;;;;;;;3.48;100.00;100720.75;4971227;28;20081;-82
2022/10/21 00:16:07;;;;;;;27.35;15.27;;;;;;;3.55;100.00;100733.97;4972474;28;20034;-82
2022/10/21 00:18:39;;;;;;;26.17;15.00;;;;;;;3.51;100.00;100736.06;4971195;28;20026;-81
2022/10/21 00:21:29;;;;;;;29.67;16.15;;;;;;;3.52;100.00;100734.84;4971134;28;20110;-82
2022/10/21 00:23:59;;;;;;;33.67;18.30;;;;;;;3.46;100.00;100728.91;4969122;28;20039;-82
2022/10/21 00:26:31;;;;;;;33.13;16.85;;;;;;;3.33;100.00;100715.84;4972171;28;20026;-83
2022/10/21 00:29:00;;;;;;;31.13;16.73;;;;;;;3.41;100.00;100706.81;4970884;28;20054;-82
2022/10/21 00:31:29;;;;;;;32.08;16.77;;;;;;;3.35;100.00;100704.91;4972210;28;20054;-81
2022/10/21 00:33:57;;;;;;;32.03;16.98;;;;;;;3.29;100.00;100703.81;4971164;28;20081;-83
2022/10/21 00:36:23;;;;;;;34.53;17.65;;;;;;;3.39;100.00;100703.59;4970984;28;20019;-82
2022/10/21 00:38:48;;;;;;;29.38;15.93;;;;;;;3.19;100.00;100671.72;4954769;28;20081;-82
2022/10/21 00:41:18;;;;;;;32.80;16.92;;;;;;;3.26;100.00;100667.97;4972251;28;20023;-80
2022/10/21 00:44:11;;;;;;;29.63;16.25;;;;;;;3.38;100.00;100684.28;4955424;28;20034;-82
2022/10/21 00:46:51;;;;;;;35.65;16.90;;;;;;;3.39;100.00;100697.16;4970577;28;20067;-81
2022/10/21 00:49:24;;;;;;;33.28;16.88;;;;;;;3.36;100.00;100693.19;4971109;28;20031;-81
2022/10/21 00:52:00;;;;;;;38.20;19.63;;;;;;;3.36;100.00;100681.09;4955968;28;20033;-81
2022/10/21 00:54:29;;;;;;;34.38;16.42;;;;;;;3.33;100.00;100673.50;4974573;28;20030;-82
2022/10/21 00:56:55;;;;;;;29.38;17.42;;;;;;;3.32;100.00;100674.72;4958268;28;20030;-81
2022/10/21 00:59:26;;;;;;;47.15;18.77;;;;;;;3.27;100.00;100661.91;4974301;28;20050;-80
2022/10/21 01:01:51;;;;;;;35.20;17.95;;;;;;;3.43;100.00;100678.09;4958503;28;20121;-82
2022/10/21 01:04:17;;;;;;;34.53;17.52;;;;;;;3.49;100.00;100680.00;4975604;28;20110;-83
2022/10/21 01:06:52;;;;;;;31.92;17.58;;;;;;;3.26;100.00;100642.56;4974204;28;20056;-84
2022/10/21 01:09:20;;;;;;;32.88;17.23;;;;;;;3.52;100.00;100653.72;4959291;28;20029;-82
2022/10/21 01:11:48;;;;;;;37.03;18.70;;;;;;;3.49;100.00;100637.63;4974948;28;20038;-82
2022/10/21 01:14:19;;;;;;;38.45;18.80;;;;;;;3.58;100.00;100653.97;4976368;28;20037;-82
2022/10/21 01:16:59;;;;;;;30.80;17.63;;;;;;;3.48;100.00;100638.84;4960022;28;20093;-82
2022/10/21 01:19:48;;;;;;;43.08;17.77;;;;;;;3.69;100.00;100648.09;4977376;28;20113;-82
2022/10/21 01:22:37;;;;;;;34.30;17.05;;;;;;;3.74;100.00;100648.38;4976478;28;20055;-81
2022/10/21 01:25:39;;;;;;;39.55;17.60;;;;;;;3.73;100.00;100649.59;4977360;28;20496;-82
2022/10/21 01:28:32;;;;;;;35.75;20.23;;;;;;;3.76;100.00;100642.31;4975965;28;20037;-82
2022/10/21 01:31:07;;;;;;;33.95;18.85;;;;;;;3.76;100.00;100633.81;4975723;28;20061;-82
2022/10/21 01:33:44;;;;;;;38.03;18.75;;;;;;;3.86;100.00;100632.78;4975298;28;20035;-82
2022/10/21 01:36:47;;;;;;;38.85;19.00;;;;;;;3.88;100.00;100642.44;4957695;28;20046;-84
2022/10/21 01:39:28;;;;;;;29.25;17.25;;;;;;;3.67;100.00;100617.47;4937071;28;20066;-82
2022/10/21 01:42:27;;;;;;;41.88;20.10;;;;;;;3.82;100.00;100643.38;4957413;28;20027;-82
2022/10/21 01:45:10;;;;;;;32.22;17.85;;;;;;;3.87;100.00;100640.84;4974094;28;20110;-82
2022/10/21 01:47:39;;;;;;;37.05;19.35;;;;;;;4.03;100.00;100645.72;4959892;28;20046;-83
2022/10/21 01:50:10;;;;;;;32.80;18.80;;;;;;;4.07;100.00;100647.22;4973552;28;20063;-83
2022/10/21 01:52:38;;;;;;;35.10;19.13;;;;;;;4.12;100.00;100653.63;4957157;28;20050;-82
2022/10/21 01:55:09;;;;;;;34.42;17.48;;;;;;;4.13;100.00;100644.69;4957580;28;20041;-83
2022/10/21 01:57:40;;;;;;;33.63;19.05;;;;;;;4.07;100.00;100620.97;4973397;28;20030;-83
2022/10/21 02:00:09;;;;;;;34.47;18.30;;;;;;;4.10;100.00;100627.81;4973590;28;20034;-83
2022/10/21 02:02:41;;;;;;;36.55;18.45;;;;;;;4.01;100.00;100611.47;4956921;28;20026;-82
2022/10/21 02:05:12;;;;;;;35.00;18.75;;;;;;;4.05;100.00;100615.78;4973357;28;20405;-83
2022/10/21 02:07:37;;;;;;;40.13;19.00;;;;;;;4.24;100.00;100652.91;4959157;28;20135;-83
2022/10/21 02:10:08;;;;;;;33.50;18.88;;;;;;;4.07;100.00;100626.63;4976637;28;20113;-82
2022/10/21 02:12:38;;;;;;;31.23;18.27;;;;;;;4.27;100.00;100655.66;4975177;28;20019;-82
2022/10/21 02:15:07;;;;;;;29.30;17.02;;;;;;;4.22;100.00;100627.09;4959083;28;20050;-80
2022/10/21 02:17:40;;;;;;;35.30;19.13;;;;;;;4.31;100.00;100636.56;4958813;28;20019;-81
2022/10/21 02:20:08;;;;;;;36.75;18.70;;;;;;;4.22;100.00;100610.13;4959563;28;20022;-82
2022/10/21 02:22:37;;;;;;;34.42;18.92;;;;;;;4.37;100.00;100639.66;4975119;28;20560;-82
2022/10/21 02:25:15;;;;;;;36.70;18.65;;;;;;;4.40;100.00;100633.13;4959263;28;20027;-82
2022/10/21 02:27:41;;;;;;;35.13;18.58;;;;;;;4.33;100.00;100628.44;4975058;28;20034;-82
2022/10/21 02:30:09;;;;;;;31.80;17.77;;;;;;;4.47;100.00;100639.38;4974753;28;20126;-82
2022/10/21 02:32:38;;;;;;;34.58;18.92;;;;;;;4.46;100.00;100626.47;4975116;28;20461;-82
2022/10/21 02:35:32;;;;;;;36.67;18.30;;;;;;;4.51;100.00;100630.81;4958558;28;20058;-82
2022/10/21 02:38:09;;;;;;;33.33;17.48;;;;;;;4.51;100.00;100628.00;4974660;28;20018;-83
2022/10/21 02:40:47;;;;;;;44.70;20.42;;;;;;;4.38;100.00;100607.28;4976255;28;20475;-82
2022/10/21 02:43:16;;;;;;;36.53;18.13;;;;;;;4.40;100.00;100602.00;4974796;28;20475;-83
2022/10/21 02:45:45;;;;;;;34.50;18.02;;;;;;;4.49;100.00;100614.28;4974722;28;20475;-82
2022/10/21 02:48:10;;;;;;;36.97;17.83;;;;;;;4.38;100.00;100588.28;4975236;28;20097;-81
2022/10/21 02:50:36;;;;;;;31.42;17.88;;;;;;;4.51;100.00;100611.03;4974901;28;20026;-82
2022/10/21 02:53:01;;;;;;;35.42;18.73;;;;;;;4.56;100.00;100606.84;4974805;28;20411;-82
2022/10/21 02:55:29;;;;;;;32.03;16.88;;;;;;;4.43;100.00;100584.13;4975347;28;20031;-81
2022/10/21 02:57:57;;;;;;;35.63;17.38;;;;;;;4.57;100.00;100595.06;4958401;28;20018;-81
2022/10/21 03:00:25;;;;;;;35.85;16.35;;;;;;;4.58;100.00;100599.50;4958512;28;20019;-81
2022/10/21 03:02:50;;;;;;;36.25;17.85;;;;;;;4.52;100.00;100592.78;4958764;28;20037;-82
2022/10/21 03:05:19;;;;;;;28.88;16.38;;;;;;;4.60;100.00;100593.41;4975324;28;20372;-82
2022/10/21 03:07:49;;;;;;;36.00;17.15;;;;;;;4.63;100.00;100596.13;4973992;28;20801;-82
2022/10/21 03:10:14;;;;;;;28.35;15.95;;;;;;;4.65;100.00;100588.00;4974122;28;20023;-81
2022/10/21 03:12:40;;;;;;;33.17;17.15;;;;;;;4.61;100.00;100575.19;4974279;28;20086;-82
2022/10/21 03:15:08;;;;;;;33.58;17.45;;;;;;;4.61;100.00;100564.63;4973999;28;20448;-81
2022/10/21 03:17:34;;;;;;;32.70;17.08;;;;;;;4.76;100.00;100563.00;4973856;28;20102;-80
2022/10/21 03:19:59;;;;;;;29.90;16.08;;;;;;;4.82;100.00;100581.03;4973491;28;20467;-82
2022/10/21 03:22:27;;;;;;;29.45;16.10;;;;;;;4.86;100.00;100581.72;4973035;28;20026;-82
2022/10/21 03:24:53;;;;;;;32.83;16.67;;;;;;;4.82;100.00;100563.25;4956037;28;20030;-82
2022/10/21 03:27:18;;;;;;;33.35;17.70;;;;;;;4.98;100.00;100571.72;4971900;28;20046;-81
2022/10/21 03:29:46;;;;;;;35.47;16.55;;;;;;;4.92;100.00;100560.13;4973256;28;20456;-82
2022/10/21 03:32:11;;;;;;;30.67;16.67;;;;;;;4.80;100.00;100541.09;4971542;28;20034;-82
2022/10/21 03:34:37;;;;;;;32.00;16.80;;;;;;;5.05;100.00;100573.56;4971550;28;20027;-83
2022/10/21 03:37:08;;;;;;;32.28;16.17;;;;;;;4.92;100.00;100540.31;4958067;28;20039;-82
2022/10/21 03:39:37;;;;;;;28.50;15.98;;;;;;;4.96;100.00;100542.25;4972997;28;20031;-83
2022/10/21 03:42:10;;;;;;;27.55;14.63;;;;;;;5.06;100.00;100549.63;4971607;28;20034;-82
2022/10/21 03:44:39;;;;;;;25.20;14.23;;;;;;;4.90;100.00;100514.50;4971537;28;20026;-81
2022/10/21 03:47:07;;;;;;;25.65;14.25;;;;;;;5.16;100.00;100545.69;4972376;28;20096;-81
2022/10/21 03:49:38;;;;;;;29.73;15.43;;;;;;;5.22;100.00;100546.72;4955587;28;20058;-82
2022/10/21 03:52:03;;;;;;;29.75;14.57;;;;;;;5.33;100.00;100544.38;4971881;28;20110;-83
2022/10/21 03:54:29;;;;;;;28.67;15.18;;;;;;;5.45;100.00;100559.81;4972161;28;20441;-81
2022/10/21 03:56:59;;;;;;;23.85;13.32;;;;;;;5.39;100.00;100542.56;4973780;28;20030;-81
2022/10/21 03:59:28;;;;;;;20.00;12.43;;;;;;;4.92;100.00;100466.69;4974612;28;20399;-81
2022/10/21 04:02:02;;;;;;;25.73;13.65;;;;;;;4.97;100.00;100456.06;4974686;28;20026;-82
2022/10/21 04:04:30;;;;;;;20.67;12.38;;;;;;;5.47;100.00;100534.63;4974933;28;20022;-82
2022/10/21 04:06:58;;;;;;;22.95;12.43;;;;;;;5.74;100.00;100543.50;4957378;28;20430;-83
2022/10/21 04:12:32;;;;;;;29.05;12.93;;;;;;;5.76;100.00;100498.47;4969468;28;20042;-82
2022/10/21 04:14:58;;;;;;;23.33;12.48;;;;;;;5.86;100.00;100510.69;4957028;28;20502;-82
2022/10/21 04:17:27;;;;;;;24.58;12.50;;;;;;;6.01;100.00;100508.97;4956945;28;20030;-83
2022/10/21 04:19:55;;;;;;;20.40;10.60;;;;;;;6.20;100.00;100522.91;4973650;28;20480;-82
2022/10/21 04:22:28;;;;;;;20.30;10.27;;;;;;;6.25;100.00;100508.13;4958477;28;20427;-81
2022/10/21 04:24:54;;;;;;;15.57;8.98;;;;;;;6.33;100.00;100497.38;4974552;28;20058;-84
2022/10/21 04:27:19;;;;;;;16.55;9.85;;;;;;;6.64;100.00;100523.81;4975164;28;20430;-83
2022/10/21 04:29:46;;;;;;;19.38;10.82;;;;;;;6.73;100.00;100510.94;4977993;28;20056;-83
2022/10/21 04:32:15;;;;;;;14.93;9.85;;;;;;;6.74;100.00;100478.44;4977154;28;20122;-82
2022/10/21 04:34:41;;;;;;;18.75;10.32;;;;;;;7.08;100.00;100515.28;4977058;28;20031;-81
2022/10/21 04:37:08;;;;;;;16.52;10.10;;;;;;;7.21;100.00;100513.19;4976957;28;20542;-82
2022/10/21 04:39:38;;;;;;;17.50;10.32;;;;;;;7.27;100.00;100502.78;4968676;28;20081;-81
2022/10/21 04:42:03;;;;;;;16.95;10.52;;;;;;;7.23;100.00;100472.91;4990201;28;20470;-81
2022/10/21 04:44:29;;;;;;;16.02;10.25;;;;;;;7.39;100.00;100493.38;4960482;28;20528;-82
2022/10/21 04:46:58;;;;;;;20.10;10.73;;;;;;;7.44;100.00;100492.75;4944195;28;20038;-81
2022/10/21 04:49:31;;;;;;;15.93;9.00;;;;;;;7.32;100.00;100447.38;4987268;28;20034;-83
2022/10/21 04:51:59;;;;;;;18.15;10.05;;;;;;;7.45;100.00;100462.28;4989379;28;20472;-82
2022/10/21 04:54:24;;;;;;;13.88;9.05;;;;;;;7.45;100.00;100445.22;4997612;28;20036;-81
2022/10/21 04:57:02;;;;;;;;;;;;;;;;;;;;;
2022/10/21 04:59:28;;;;;;;23.73;10.05;;;;;;;7.61;100.00;100464.09;4989655;28;20387;-82
2022/10/21 05:01:57;;;;;;;14.98;9.23;;;;;;;7.43;100.00;100417.25;4976607;28;20027;-82
2022/10/21 05:04:28;;;;;;;16.42;9.70;;;;;;;7.43;100.00;100414.41;4957546;29;20034;-80
2022/10/21 05:06:59;;;;;;;16.50;9.55;;;;;;;7.70;100.00;100447.84;4939539;29;20090;-82
2022/10/21 05:09:29;;;;;;;;;;;;;;;7.70;100.00;100445.00;4979536;28;20439;-80
2022/10/21 05:12:29;;;;;;;13.25;8.60;;;;;;;7.69;100.00;100437.72;4996378;28;19996;-82
2022/10/21 05:15:00;;;;;;;18.73;9.77;;;;;;;7.46;100.00;100392.78;4994196;28;20034;-82
2022/10/21 05:17:28;;;;;;;17.67;10.30;;;;;;;7.69;100.00;100426.34;4998144;28;20019;-82
2022/10/21 05:19:56;;;;;;;18.50;10.40;;;;;;;7.63;100.00;100398.97;4996886;28;20050;-81
2022/10/21 05:22:22;;;;;;;18.55;10.68;;;;;;;7.74;100.00;100422.88;4995801;28;20026;-82
2022/10/21 05:24:48;;;;;;;18.98;10.52;;;;;;;7.77;100.00;100424.78;4995534;28;20027;-82
2022/10/21 05:27:16;;;;;;;80.22;14.02;;;;;;;7.67;100.00;100389.03;4995067;28;20029;-81
2022/10/21 05:30:04;;;;;;;17.38;9.98;;;;;;;7.87;100.00;100403.63;4977908;28;20029;-82
2022/10/21 05:32:30;;;;;;;16.67;9.10;;;;;;;7.86;100.00;100406.94;4994248;28;20494;-84
2022/10/21 05:35:02;;;;;;;14.55;8.82;;;;;;;7.71;100.00;100366.16;4995270;28;20030;-80
2022/10/21 05:37:29;;;;;;;14.68;8.70;;;;;;;8.01;100.00;100405.06;4995002;28;20391;-81
2022/10/21 05:39:55;;;;;;;23.33;9.45;;;;;;;7.92;100.00;100377.38;4994401;28;20080;-79
2022/10/21 05:42:22;;;;;;;21.13;10.48;;;;;;;8.08;100.00;100393.38;4995351;28;20045;-80
2022/10/21 05:44:48;;;;;;;17.05;11.18;;;;;;;8.07;100.00;100391.00;4995152;28;20027;-80
2022/10/21 05:47:20;;;;;;;22.67;9.75;;;;;;;8.08;100.00;100401.91;4995828;28;20526;-80
2022/10/21 05:49:47;;;;;;;17.52;9.40;;;;;;;8.09;100.00;100397.81;4994933;28;20497;-80
2022/10/21 05:52:22;;;;;;;16.15;9.20;;;;;;;7.64;100.00;100330.28;4978740;28;20030;-79
2022/10/21 05:54:48;;;;;;;19.25;9.43;;;;;;;7.73;100.00;100346.53;4996536;28;20072;-81
2022/10/21 05:57:19;;;;;;;22.42;9.88;;;;;;;7.69;100.00;100362.97;4994889;28;20033;-79
2022/10/21 05:59:50;;;;;;;22.25;9.57;;;;;;;7.60;100.00;100326.00;4996663;28;20026;-83
2022/10/21 06:02:18;;;;;;;15.60;9.43;;;;;;;7.81;100.00;100377.06;4997256;28;20022;-87
2022/10/21 06:04:48;;;;;;;15.07;7.25;;;;;;;7.84;100.00;100376.13;4997618;28;20339;-81
2022/10/21 06:07:14;;;;;;;26.33;10.07;;;;;;;7.65;100.00;100356.66;4980848;28;20049;-81
2022/10/21 06:09:40;;;;;;;13.73;7.90;;;;;;;7.79;100.00;100378.81;4997982;28;20030;-82
2022/10/21 06:12:09;;;;;;;12.35;8.02;;;;;;;7.68;100.00;100384.16;4997282;28;20391;-79
2022/10/21 06:14:39;;;;;;;16.50;8.13;;;;;;;7.65;100.00;100374.53;4995025;28;20046;-80
2022/10/21 06:17:09;;;;;;;23.23;9.15;;;;;;;7.63;100.00;100385.56;4978804;28;20434;-80
2022/10/21 06:19:39;;;;;;;21.40;9.07;;;;;;;7.28;100.00;100342.34;4995703;28;20030;-80
2022/10/21 06:22:09;;;;;;;15.43;8.32;;;;;;;7.51;100.00;100380.81;4994703;28;20434;-82
2022/10/21 06:24:39;;;;;;;15.50;8.25;;;;;;;7.47;100.00;100374.47;4996292;28;20034;-80
2022/10/21 06:27:07;;;;;;;13.05;7.88;;;;;;;7.49;100.00;100378.44;4988362;28;20030;-81
2022/10/21 06:29:39;;;;;;;14.38;7.50;;;;;;;7.40;100.00;100361.34;4965788;28;20019;-82
2022/10/21 06:32:07;;;;;;;14.88;7.93;;;;;;;7.27;100.00;100332.28;4992736;28;20026;-81
2022/10/21 06:34:38;;;;;;;13.00;7.05;;;;;;;7.35;100.00;100344.13;4989307;28;20070;-84
2022/10/21 06:37:04;;;;;;;13.13;7.50;;;;;;;7.56;100.00;100371.66;4985416;28;20107;-81
2022/10/21 06:39:30;;;;;;;14.57;8.35;;;;;;;7.59;100.00;100367.88;4967142;28;20030;-82
2022/10/21 06:41:58;;;;;;;33.70;10.73;;;;;;;7.43;100.00;100331.97;4987463;28;20073;-81
2022/10/21 06:44:24;;;;;;;19.33;8.52;;;;;;;7.48;100.00;100339.09;4983103;28;20480;-80
2022/10/21 06:46:52;;;;;;;19.83;9.40;;;;;;;7.66;100.00;100356.19;4981569;28;20046;-81
2022/10/21 06:49:19;;;;;;;16.63;8.55;;;;;;;7.73;100.00;100357.94;4964905;28;20081;-80
2022/10/21 06:51:49;;;;;;;18.75;8.65;;;;;;;7.81;100.00;100368.53;4987215;28;20044;-81
2022/10/21 06:54:19;;;;;;;15.63;8.63;;;;;;;7.95;100.00;100369.97;4987307;28;20011;-80
2022/10/21 06:56:45;;;;;;;17.80;9.00;;;;;;;8.02;100.00;100355.41;4977314;28;20031;-80
2022/10/21 06:59:19;;;;;;;15.30;7.75;;;;;;;8.02;100.00;100341.19;4966784;28;20132;-82
2022/10/21 07:01:46;;;;;;;21.25;8.85;;;;;;;8.15;100.00;100356.06;4965308;28;20031;-82
2022/10/21 07:04:12;;;;;;;18.85;8.65;;;;;;;8.26;100.00;100344.22;4963742;28;20043;-81
2022/10/21 07:06:45;;;;;;;12.20;7.28;;;;;;;8.16;100.00;100323.50;4946624;28;20043;-83
2022/10/21 07:09:11;;;;;;;20.88;8.85;;;;;;;8.32;100.00;100330.91;4981395;28;20074;-80
2022/10/21 07:11:37;;;;;;;19.90;10.15;;;;;;;8.33;100.00;100321.13;4979620;28;20380;-83
2022/10/21 07:14:11;;;;;;;21.98;9.82;;;;;;;8.38;100.00;100323.31;4965947;28;20094;-82
2022/10/21 07:16:39;;;;;;;22.00;9.10;;;;;;;8.29;100.00;100315.59;4981962;28;20035;-80
2022/10/21 07:19:11;;;;;;;16.55;8.52;;;;;;;8.05;100.00;100254.09;4981930;28;20071;-81
2022/10/21 07:21:41;;;;;;;15.63;8.98;;;;;;;8.68;100.00;100330.84;4985185;28;20124;-81
2022/10/21 07:24:09;;;;;;;19.30;9.73;;;;;;;8.77;100.00;100327.16;4988608;28;20033;-81
2022/10/21 07:26:34;;;;;;;14.02;8.32;;;;;;;8.91;100.00;100332.19;4952415;28;20116;-82
2022/10/21 07:29:00;;;;;;;20.08;8.32;;;;;;;9.09;100.00;100340.69;4976074;28;20042;-85
2022/10/21 07:31:27;;;;;;;15.20;9.05;;;;;;;9.24;100.00;100338.69;4960257;28;20102;-83
2022/10/21 07:34:08;;;;;;;20.45;10.15;;;;;;;9.43;100.00;100339.38;4982197;28;20050;-83
2022/10/21 07:36:36;;;;;;;19.52;7.78;;;;;;;9.59;100.00;100335.34;4980361;28;20077;-86
2022/10/21 07:39:05;;;;;;;19.40;8.80;;;;;;;9.76;100.00;100339.34;4978536;28;20019;-85
2022/10/21 07:41:34;;;;;;;17.35;8.40;;;;;;;9.76;100.00;100327.94;4974327;28;20081;-84
2022/10/21 07:44:00;;;;;;;23.50;8.77;;;;;;;10.04;100.00;100337.84;4975529;28;20089;-86
2022/10/21 07:46:27;;;;;;;13.98;8.10;;;;;;;10.12;100.00;100332.56;4983268;28;20043;-85
2022/10/21 07:48:55;;;;;;;14.45;8.00;;;;;;;10.36;100.00;100347.56;4962074;28;20042;-83
2022/10/21 07:51:23;;;;;;;25.13;8.05;;;;;;;10.45;100.00;100338.13;4964485;28;20070;-81
2022/10/21 07:53:51;;;;;;;10.45;6.72;;;;;;;10.68;100.00;100342.94;4964326;28;20046;-81
2022/10/21 07:56:20;;;;;;;15.48;6.25;;;;;;;10.83;100.00;100346.59;4974837;28;20046;-81
2022/10/21 07:58:48;;;;;;;7.97;6.35;;;;;;;10.93;100.00;100355.84;4975846;28;20082;-83
2022/10/21 08:01:15;;;;;;;11.40;6.43;;;;;;;11.01;100.00;100342.75;4974891;28;20050;-83
2022/10/21 08:03:41;;;;;;;12.70;6.82;;;;;;;11.13;100.00;100347.38;4976837;28;20044;-84
2022/10/21 08:06:09;;;;;;;10.88;6.82;;;;;;;11.19;100.00;100336.03;4979275;28;20142;-86
2022/10/21 08:08:35;;;;;;;12.15;6.50;;;;;;;11.28;100.00;100319.53;4978579;28;20069;-83
2022/10/21 08:11:02;;;;;;;13.63;5.80;;;;;;;11.33;100.00;100327.41;4983650;28;20035;-84
2022/10/21 08:13:30;;;;;;;9.93;6.10;;;;;;;11.49;100.00;100325.28;4984483;28;20027;-85
2022/10/21 08:15:57;;;;;;;11.25;6.18;;;;;;;11.58;100.00;100334.53;4987289;28;20039;-82
2022/10/21 08:18:29;;;;;;;12.85;7.25;;;;;;;11.65;100.00;100356.22;4980522;28;20058;-83
2022/10/21 08:20:55;;;;;;;8.15;5.68;;;;;;;11.71;100.00;100362.81;4974024;28;20039;-82
2022/10/21 08:23:22;;;;;;;8.75;5.90;;;;;;;11.72;100.00;100338.59;4978049;28;20046;-82
2022/10/21 08:25:53;;;;;;;11.38;5.97;;;;;;;11.84;100.00;100331.75;4977042;28;20070;-87
2022/10/21 08:28:20;;;;;;;13.23;5.70;;;;;;;11.83;100.00;100325.22;4947009;28;20031;-86
2022/10/21 08:30:48;;;;;;;8.95;5.93;;;;;;;11.89;100.00;100321.66;4979519;28;20045;-86
2022/10/21 08:33:18;;;;;;;7.82;5.68;;;;;;;12.00;100.00;100339.78;4961818;28;20035;-88
2022/10/21 08:35:45;;;;;;;10.10;6.10;;;;;;;12.07;100.00;100330.72;4979788;28;20035;-87
2022/10/21 08:38:10;;;;;;;8.70;6.13;;;;;;;12.15;100.00;100336.81;4963168;28;20046;-87
2022/10/21 08:40:48;;;;;;;9.48;6.50;;;;;;;12.16;100.00;100342.03;4978804;28;20030;-86
2022/10/21 08:43:24;;;;;;;11.68;6.43;;;;;;;12.21;100.00;100326.97;4980588;28;20050;-86
2022/10/21 08:45:58;;;;;;;9.82;6.00;;;;;;;12.30;100.00;100317.47;4979649;28;20383;-87
2022/10/21 08:48:36;;;;;;;11.35;6.32;;;;;;;12.24;100.00;100308.00;4978500;28;20054;-85
2022/10/21 08:51:08;;;;;;;22.17;6.80;;;;;;;12.22;100.00;100304.84;4978051;28;20034;-85
2022/10/21 08:53:40;;;;;;;13.30;7.00;;;;;;;12.20;100.00;100299.66;4964804;28;20392;-87
2022/10/21 08:56:08;;;;;;;;;;;;;;;12.22;100.00;100291.31;4980367;28;20031;-87
2022/10/21 08:58:42;;;;;;;13.75;6.15;;;;;;;11.91;100.00;100242.56;4964614;28;20347;-88
2022/10/21 09:01:36;;;;;;;11.10;5.85;;;;;;;12.59;100.00;100297.19;4980649;28;20134;-87
2022/10/21 09:04:08;;;;;;;11.20;6.47;;;;;;;12.75;100.00;100290.00;4964177;28;20039;-88
2022/10/21 09:06:38;;;;;;;8.77;6.10;;;;;;;12.87;100.00;100303.16;4980182;28;20101;-88
2022/10/21 09:09:28;;;;;;;28.33;7.70;;;;;;;13.05;100.00;100293.38;4971072;28;20026;-85
2022/10/21 09:12:03;;;;;;;65.63;13.02;;;;;;;13.14;100.00;100287.47;4988020;28;20410;-85
2022/10/21 09:15:02;;;;;;;49.05;13.40;;;;;;;13.22;100.00;100294.28;4961953;28;20053;-87
2022/10/21 09:17:58;;;;;;;24.02;7.78;;;;;;;13.33;100.00;100282.09;4962676;28;20039;-83
2022/10/21 09:20:53;;;;;;;19.08;6.93;;;;;;;13.40;100.00;100276.66;4984968;28;20027;-85
2022/10/21 09:23:47;;;;;;;37.28;9.27;;;;;;;13.52;100.00;100271.78;4980381;28;20047;-85
2022/10/21 09:26:42;;;;;;;19.23;7.35;;;;;;;13.70;100.00;100262.72;4981753;28;20046;-84
2022/10/21 09:29:18;;;;;;;26.05;7.30;;;;;;;13.90;100.00;100259.69;4979540;28;20084;-87
2022/10/21 09:31:45;;;;;;;11.52;6.03;;;;;;;13.84;100.00;100226.47;4978161;28;20055;-85
2022/10/21 09:34:21;;;;;;;11.45;6.05;;;;;;;14.10;100.00;100232.81;4959908;28;20486;-86
2022/10/21 09:37:02;;;;;;;17.63;6.78;;;;;;;14.54;100.00;100251.44;4979970;28;20030;-88
2022/10/21 09:39:40;;;;;;;21.48;6.85;;;;;;;14.69;99.54;100223.22;4967746;28;20054;-90
2022/10/21 09:42:09;;;;;;;20.60;7.00;;;;;;;14.91;97.33;100236.81;4987278;28;20038;-88
2022/10/21 09:44:38;;;;;;;29.75;7.18;;;;;;;15.07;95.32;100231.03;4967569;28;20031;-89
2022/10/21 09:47:21;;;;;;;37.83;7.47;;;;;;;15.34;92.19;100243.78;4984751;28;20062;-88
2022/10/21 09:49:57;;;;;;;28.13;7.40;;;;;;;15.43;87.37;100249.25;4983784;28;20047;-89
2022/10/21 09:52:29;;;;;;;39.70;8.77;;;;;;;15.66;87.00;100244.25;4967791;28;20037;-88
2022/10/21 09:54:58;;;;;;;30.75;7.85;;;;;;;15.78;85.09;100248.63;4983637;28;20121;-87
2022/10/21 09:57:51;;;;;;;34.88;6.70;;;;;;;16.00;82.90;100247.75;4983524;28;20113;-88
2022/10/21 10:00:17;;;;;;;44.53;7.82;;;;;;;15.85;82.40;100207.75;4982526;28;20019;-88
2022/10/21 10:02:45;;;;;;;24.02;5.13;;;;;;;16.27;81.66;100246.00;4967619;28;20054;-88
2022/10/21 10:05:46;;;;;;;10.05;4.20;;;;;;;16.37;77.26;100264.53;4947082;28;20404;-87
2022/10/21 10:08:43;;;;;;;29.48;7.90;;;;;;;16.40;76.75;100246.19;4962858;28;20046;-86
2022/10/21 10:11:11;;;;;;;26.63;7.28;;;;;;;16.49;76.30;100263.94;4978728;28;20094;-88
2022/10/21 10:14:19;;;;;;;12.95;4.95;;;;;;;16.53;74.20;100243.47;4980104;28;20450;-88
2022/10/21 10:16:48;;;;;;;41.40;7.25;;;;;;;16.42;75.63;100208.91;4979528;28;20034;-88
2022/10/21 10:19:19;;;;;;;11.95;4.30;;;;;;;16.60;72.60;100239.25;4980793;28;20030;-88
2022/10/21 10:21:50;;;;;;;11.95;5.07;;;;;;;16.60;72.15;100239.25;4977236;28;20034;-87
2022/10/21 10:24:23;;;;;;;9.93;5.27;;;;;;;16.41;71.65;100211.03;4945140;28;20034;-84
2022/10/21 10:26:48;;;;;;;26.02;6.95;;;;;;;16.43;70.39;100233.56;4978957;28;20038;-89
2022/10/21 10:29:20;;;;;;;22.42;6.18;;;;;;;16.47;71.08;100240.59;4976514;28;20045;-87
2022/10/21 10:31:49;;;;;;;;;;;;;;;16.44;70.92;100247.47;4980328;28;20038;-85
2022/10/21 10:34:29;;;;;;;7.63;3.97;;;;;;;16.40;70.19;100235.41;4977878;28;19937;-87
2022/10/21 10:37:16;;;;;;;27.98;5.65;;;;;;;16.09;71.58;100163.81;4947219;28;20061;-85
2022/10/21 10:40:09;;;;;;;22.58;5.72;;;;;;;16.48;70.66;100212.56;4961450;28;20057;-86
2022/10/21 10:42:48;;;;;;;40.47;7.68;;;;;;;16.44;69.27;100212.84;4961837;28;20038;-87
2022/10/21 10:45:19;;;;;;;40.20;8.27;;;;;;;16.50;70.56;100219.34;4980157;28;20045;-85
2022/10/21 10:48:04;;;;;;;;;;;;;;;;;;;;;
2022/10/21 10:50:49;;;;;;;33.30;6.25;;;;;;;16.55;68.89;100227.19;4979100;28;20527;-87
2022/10/21 10:53:38;;;;;;;17.65;4.28;;;;;;;16.39;67.50;100201.34;4978996;28;20090;-88
2022/10/21 10:56:34;;;;;;;13.65;4.43;;;;;;;16.45;67.08;100228.06;4966013;28;20041;-87
2022/10/21 10:59:11;;;;;;;8.63;3.72;;;;;;;16.42;67.30;100218.34;4971074;28;20035;-86
2022/10/21 11:02:23;;;;;;;10.93;3.78;;;;;;;16.44;68.63;100198.44;4981897;28;20095;-86
2022/10/21 11:05:09;;;;;;;6.18;3.83;;;;;;;16.54;70.54;100184.47;4968752;28;20042;-87
2022/10/21 11:07:52;;;;;;;8.38;4.18;;;;;;;16.62;68.71;100190.44;4981127;28;20039;-87
2022/10/21 11:10:41;;;;;;;10.65;3.95;;;;;;;16.63;68.61;100189.91;4964084;28;20026;-85
2022/10/21 11:13:28;;;;;;;11.23;4.47;;;;;;;16.59;66.99;100203.84;4986354;28;20058;-85
2022/10/21 11:16:23;;;;;;;21.35;4.95;;;;;;;16.57;67.73;100194.16;4979730;28;20043;-87
2022/10/21 11:19:08;;;;;;;11.32;4.45;;;;;;;16.51;68.69;100188.38;4968268;28;20081;-88
2022/10/21 11:21:52;;;;;;;6.20;3.80;;;;;;;16.44;69.02;100168.78;4986247;28;20027;-87
2022/10/21 11:24:36;;;;;;;11.30;3.95;;;;;;;16.39;69.22;100176.19;4983534;28;20038;-90
2022/10/21 11:27:38;;;;;;;11.63;4.68;;;;;;;16.21;69.73;100170.28;4987531;28;20034;-86
2022/10/21 11:30:18;;;;;;;7.57;4.40;;;;;;;16.13;69.70;100181.63;4993484;28;20015;-86
2022/10/21 11:33:13;;;;;;;11.02;4.43;;;;;;;16.13;70.79;100178.72;4975797;28;20038;-86
2022/10/21 11:36:10;;;;;;;12.98;4.90;;;;;;;15.91;70.00;100173.13;4988410;28;20030;-86
2022/10/21 11:39:15;;;;;;;21.08;5.18;;;;;;;15.83;70.05;100186.53;4985080;28;20026;-87
2022/10/21 11:42:16;;;;;;;18.08;6.10;;;;;;;15.54;72.04;100165.69;4987289;28;20050;-86
2022/10/21 11:45:06;;;;;;;10.73;4.85;;;;;;;15.63;72.86;100171.19;4984320;28;20117;-83
2022/10/21 11:47:54;;;;;;;15.27;4.75;;;;;;;15.67;73.87;100157.28;4981757;28;20066;-86